Time;durP1;ratioP1;P1;durP2;ratioP2;P2;SDS_P1;SDS_P2;PMS_P1;PMS_P2;Temp;Humidity;BMP_temperature;BMP_pressure;BME280_temperature;BME280_humidity;BME280_pressure;Samples;Min_cycle;Max_cycle;Signal;HPM_P1;HPM_P2
2021/04/30 00:01:15;;;;;;;10.70;9.60;;;;;;;6.77;74.83;98926.25;4973955;28;20294;-75
2021/04/30 00:03:42;;;;;;;11.10;8.55;;;;;;;6.66;74.95;98932.16;4973511;28;20283;-75
2021/04/30 00:06:08;;;;;;;10.40;9.38;;;;;;;6.65;74.82;98926.91;4973571;28;20597;-75
2021/04/30 00:08:37;;;;;;;9.75;8.60;;;;;;;6.33;76.24;98918.75;4973504;28;20521;-74
2021/04/30 00:11:03;;;;;;;10.48;9.48;;;;;;;6.47;76.00;98913.53;4973695;28;20195;-76
2021/04/30 00:13:29;;;;;;;14.18;9.10;;;;;;;6.35;76.32;98919.50;4973327;28;20363;-74
2021/04/30 00:15:56;;;;;;;11.65;9.43;;;;;;;6.33;76.50;98924.09;4973015;28;20200;-74
2021/04/30 00:18:22;;;;;;;10.95;9.85;;;;;;;6.34;76.47;98925.81;4973387;28;20306;-74
2021/04/30 00:20:53;;;;;;;13.10;10.55;;;;;;;6.48;76.05;98928.63;4973795;28;20218;-73
2021/04/30 00:23:25;;;;;;;11.20;10.05;;;;;;;6.66;75.51;98924.13;4973466;28;20561;-73
2021/04/30 00:25:51;;;;;;;12.98;10.00;;;;;;;6.51;75.82;98914.22;4972741;28;20196;-75
2021/04/30 00:28:17;;;;;;;11.48;10.02;;;;;;;6.24;77.30;98913.84;4972495;28;20196;-73
2021/04/30 00:30:43;;;;;;;13.50;10.60;;;;;;;6.05;77.64;98912.13;4973012;28;20211;-75
2021/04/30 00:33:10;;;;;;;11.07;9.57;;;;;;;5.95;78.37;98916.22;4973488;28;20211;-74
2021/04/30 00:35:36;;;;;;;11.43;9.88;;;;;;;5.90;78.37;98918.22;4973329;28;20622;-74
2021/04/30 00:38:03;;;;;;;12.18;9.88;;;;;;;5.89;78.52;98913.81;4973104;28;20278;-75
2021/04/30 00:40:30;;;;;;;11.27;10.07;;;;;;;5.93;79.09;98911.88;4973132;28;20417;-75
2021/04/30 00:42:56;;;;;;;12.73;10.63;;;;;;;5.84;78.92;98923.88;4972468;28;20200;-73
2021/04/30 00:45:23;;;;;;;12.45;11.15;;;;;;;5.89;78.70;98931.66;4973187;28;20291;-75
2021/04/30 00:47:50;;;;;;;12.75;10.32;;;;;;;5.81;79.17;98924.00;4972974;28;20202;-75
2021/04/30 00:50:17;;;;;;;11.93;10.73;;;;;;;5.76;78.81;98936.72;4973027;28;20275;-75
2021/04/30 00:52:44;;;;;;;13.48;10.90;;;;;;;5.72;79.27;98933.38;4973131;28;20341;-73
2021/04/30 00:55:13;;;;;;;12.75;11.10;;;;;;;5.69;79.56;98932.63;4973197;28;20722;-74
2021/04/30 00:57:42;;;;;;;14.90;11.30;;;;;;;5.41;80.41;98936.63;4973316;28;20271;-72
2021/04/30 01:00:11;;;;;;;15.05;12.52;;;;;;;5.26;81.64;98934.69;4972377;28;20246;-75
2021/04/30 01:02:39;;;;;;;12.60;11.10;;;;;;;5.63;80.31;98929.34;4953971;29;20627;-74
2021/04/30 01:05:07;;;;;;;12.48;10.40;;;;;;;5.39;81.02;98931.38;4970582;28;20269;-75
2021/04/30 01:07:33;;;;;;;13.18;11.77;;;;;;;5.16;82.22;98936.94;4976703;28;20206;-74
2021/04/30 01:09:59;;;;;;;15.00;11.85;;;;;;;5.26;82.43;98934.69;4976383;28;20226;-74
2021/04/30 01:12:27;;;;;;;11.80;10.60;;;;;;;5.21;82.40;98941.09;4976587;28;20287;-74
2021/04/30 01:14:53;;;;;;;16.02;11.82;;;;;;;5.21;82.26;98950.91;4976372;28;20194;-75
2021/04/30 01:17:19;;;;;;;13.10;10.13;;;;;;;5.30;81.98;98945.16;4977148;28;20283;-75
2021/04/30 01:19:46;;;;;;;12.75;10.60;;;;;;;5.39;81.49;98947.38;4976489;28;20723;-74
2021/04/30 01:22:13;;;;;;;11.65;10.45;;;;;;;5.52;80.29;98955.69;4976205;28;20296;-75
2021/04/30 01:24:39;;;;;;;13.10;10.60;;;;;;;5.61;80.17;98949.03;4976543;28;20287;-74
2021/04/30 01:27:05;;;;;;;11.95;10.55;;;;;;;5.39;80.73;98951.88;4976709;28;20698;-74
2021/04/30 01:29:31;;;;;;;13.63;10.90;;;;;;;5.45;80.99;98967.59;4976440;28;20208;-75
2021/04/30 01:31:57;;;;;;;14.00;11.20;;;;;;;5.33;80.61;98960.16;4976409;28;20184;-75
2021/04/30 01:34:24;;;;;;;12.90;10.82;;;;;;;5.17;81.30;98962.66;4976201;28;20661;-73
2021/04/30 01:36:50;;;;;;;12.25;11.02;;;;;;;5.12;81.94;98949.53;4976273;28;20196;-75
2021/04/30 01:39:17;;;;;;;13.18;11.77;;;;;;;4.99;82.55;98951.03;4975888;28;20262;-73
2021/04/30 01:41:43;;;;;;;11.77;10.57;;;;;;;4.98;82.94;98949.31;4976055;28;20358;-75
2021/04/30 01:44:11;;;;;;;13.55;11.10;;;;;;;4.96;83.03;98951.19;4975827;28;20197;-74
2021/04/30 01:46:37;;;;;;;14.73;11.38;;;;;;;4.81;83.61;98950.06;4976368;28;20722;-73
2021/04/30 01:49:04;;;;;;;12.70;11.38;;;;;;;4.99;83.34;98956.38;4975186;28;20386;-74
2021/04/30 01:51:30;;;;;;;12.80;10.95;;;;;;;5.07;82.44;98946.22;4976116;28;20205;-76
2021/04/30 01:53:57;;;;;;;14.02;12.40;;;;;;;4.80;83.50;98941.19;4976242;28;20274;-74
2021/04/30 01:56:24;;;;;;;14.77;12.50;;;;;;;5.14;82.70;98942.34;4975865;28;20293;-74
2021/04/30 01:58:50;;;;;;;13.27;11.55;;;;;;;5.08;82.36;98939.94;4975966;28;20202;-75
2021/04/30 02:01:16;;;;;;;20.17;11.52;;;;;;;4.94;82.92;98943.25;4975659;28;21075;-74
2021/04/30 02:03:43;;;;;;;14.38;10.45;;;;;;;4.97;82.91;98952.91;4976227;28;20233;-75
2021/04/30 02:06:09;;;;;;;13.20;11.65;;;;;;;4.92;82.98;98954.91;4975821;28;20234;-75
2021/04/30 02:08:35;;;;;;;14.35;12.85;;;;;;;4.82;83.51;98959.81;4975481;28;20201;-73
2021/04/30 02:11:01;;;;;;;12.48;11.13;;;;;;;4.79;83.89;98958.16;4976081;28;20606;-74
2021/04/30 02:13:28;;;;;;;14.05;11.85;;;;;;;4.84;83.62;98952.63;4975692;28;20557;-75
2021/04/30 02:15:55;;;;;;;13.98;11.68;;;;;;;4.63;84.14;98950.88;4975509;28;20190;-74
2021/04/30 02:18:22;;;;;;;14.57;11.35;;;;;;;4.56;84.54;98950.28;4975125;28;20185;-74
2021/04/30 02:20:49;;;;;;;13.25;11.68;;;;;;;4.48;85.10;98947.13;4975381;28;20243;-75
2021/04/30 02:23:15;;;;;;;12.48;11.18;;;;;;;4.70;84.24;98944.34;4975395;28;20302;-75
2021/04/30 02:25:42;;;;;;;14.35;11.63;;;;;;;4.37;85.31;98951.09;4976054;28;20206;-75
2021/04/30 02:28:09;;;;;;;14.32;11.88;;;;;;;4.41;85.02;98948.28;4975373;28;20213;-75
2021/04/30 02:30:38;;;;;;;13.27;11.35;;;;;;;4.36;85.66;98951.16;4975403;28;20545;-75
2021/04/30 02:33:05;;;;;;;14.20;12.70;;;;;;;4.47;85.24;98948.88;4975691;28;20258;-74
2021/04/30 02:35:34;;;;;;;14.07;12.10;;;;;;;4.46;85.02;98951.66;4975274;28;20630;-75
2021/04/30 02:38:01;;;;;;;14.02;11.25;;;;;;;4.49;84.92;98951.50;4975460;28;20337;-75
2021/04/30 02:40:29;;;;;;;17.17;12.68;;;;;;;4.27;85.82;98952.41;4975540;28;20187;-75
2021/04/30 02:42:58;;;;;;;15.98;12.23;;;;;;;4.37;85.38;98948.44;4975381;28;20227;-74
2021/04/30 02:45:24;;;;;;;15.50;12.77;;;;;;;4.58;84.52;98946.63;4974983;28;20279;-75
2021/04/30 02:47:53;;;;;;;15.95;13.25;;;;;;;4.47;84.72;98953.38;4975013;28;20224;-74
2021/04/30 02:50:22;;;;;;;16.25;12.35;;;;;;;4.64;84.06;98952.63;4975032;28;20204;-74
2021/04/30 02:52:48;;;;;;;15.23;12.40;;;;;;;4.68;83.64;98949.75;4974916;28;20198;-75
2021/04/30 02:55:16;;;;;;;15.43;12.57;;;;;;;4.63;83.45;98946.41;4974713;28;20242;-75
2021/04/30 02:57:42;;;;;;;18.00;12.27;;;;;;;4.36;84.46;98946.72;4974614;28;20190;-73
2021/04/30 03:00:10;;;;;;;14.00;12.60;;;;;;;4.10;85.66;98950.47;4962295;28;20191;-74
2021/04/30 03:02:36;;;;;;;15.10;12.07;;;;;;;4.16;86.23;98944.91;4974300;28;20216;-75
2021/04/30 03:05:05;;;;;;;14.55;11.90;;;;;;;3.97;86.74;98944.78;4974131;28;20234;-74
2021/04/30 03:07:31;;;;;;;17.05;12.85;;;;;;;3.94;87.28;98941.41;4974933;28;20195;-75
2021/04/30 03:09:57;;;;;;;18.48;12.68;;;;;;;3.95;87.61;98940.44;4977831;28;20275;-74
2021/04/30 03:12:23;;;;;;;14.88;11.80;;;;;;;3.88;87.71;98942.50;4993990;28;20287;-72
2021/04/30 03:14:49;;;;;;;15.60;12.25;;;;;;;4.00;87.25;98933.13;4982028;28;20624;-73
2021/04/30 03:17:16;;;;;;;16.42;13.10;;;;;;;4.09;86.63;98939.88;4974540;28;20260;-74
2021/04/30 03:19:42;;;;;;;17.88;13.00;;;;;;;4.20;86.25;98937.63;4974727;28;20192;-74
2021/04/30 03:22:09;;;;;;;15.35;13.23;;;;;;;4.41;85.27;98938.53;4974102;28;20310;-73
2021/04/30 03:24:35;;;;;;;15.98;13.70;;;;;;;4.30;84.68;98938.13;4973979;28;20280;-73
2021/04/30 03:27:02;;;;;;;18.23;14.00;;;;;;;4.14;85.11;98945.91;4984584;28;20203;-74
2021/04/30 03:29:28;;;;;;;15.43;12.15;;;;;;;4.05;85.39;98938.25;4974869;28;20271;-74
2021/04/30 03:31:54;;;;;;;17.70;13.45;;;;;;;3.92;86.70;98929.94;4974407;28;20190;-72
2021/04/30 03:34:20;;;;;;;14.43;11.95;;;;;;;3.93;86.47;98943.19;4974201;28;20199;-74
2021/04/30 03:36:46;;;;;;;19.02;12.82;;;;;;;3.99;85.88;98931.41;4974041;28;20634;-73
2021/04/30 03:39:13;;;;;;;15.63;13.18;;;;;;;3.87;86.33;98934.59;4973173;28;20192;-72
2021/04/30 03:41:40;;;;;;;18.40;12.70;;;;;;;3.76;86.89;98940.38;4974482;28;20350;-72
2021/04/30 03:44:06;;;;;;;16.83;13.90;;;;;;;3.80;86.94;98939.31;4975924;28;20646;-73
2021/04/30 03:46:32;;;;;;;17.38;14.00;;;;;;;3.88;86.59;98929.19;4975917;28;20291;-73
2021/04/30 03:48:59;;;;;;;19.92;14.65;;;;;;;3.73;87.44;98928.03;4973573;28;20278;-73
2021/04/30 03:51:25;;;;;;;15.75;13.00;;;;;;;3.89;86.67;98933.59;4973524;28;20197;-74
2021/04/30 03:53:51;;;;;;;15.10;12.45;;;;;;;3.93;86.48;98937.88;4973432;28;20203;-72
2021/04/30 03:56:18;;;;;;;14.55;12.52;;;;;;;4.04;85.49;98947.19;4973843;28;20648;-74
2021/04/30 03:58:44;;;;;;;15.77;12.75;;;;;;;4.02;85.99;98943.72;4974076;28;20277;-74
2021/04/30 04:01:10;;;;;;;18.42;13.60;;;;;;;4.22;84.63;98942.91;4973478;28;20217;-73
2021/04/30 04:03:36;;;;;;;20.05;12.57;;;;;;;4.17;84.49;98940.44;4974098;28;20647;-74
2021/04/30 04:06:03;;;;;;;13.57;12.18;;;;;;;4.15;84.86;98950.28;4973467;28;20233;-74
2021/04/30 04:08:29;;;;;;;15.80;13.18;;;;;;;4.08;84.59;98947.00;4973514;28;20305;-74
2021/04/30 04:10:55;;;;;;;18.83;14.23;;;;;;;3.92;85.33;98940.59;4972956;28;20204;-75
2021/04/30 04:13:24;;;;;;;17.95;14.35;;;;;;;3.72;85.97;98939.59;4973448;28;20226;-73
2021/04/30 04:15:51;;;;;;;15.40;13.10;;;;;;;3.74;86.28;98936.88;4973531;28;20225;-75
2021/04/30 04:18:19;;;;;;;18.70;15.02;;;;;;;3.69;86.41;98946.88;4973400;28;20212;-75
2021/04/30 04:20:46;;;;;;;20.33;14.73;;;;;;;3.53;86.74;98930.66;4973287;28;20293;-75
2021/04/30 04:23:12;;;;;;;16.95;14.27;;;;;;;3.47;87.23;98920.25;4973408;28;20548;-74
2021/04/30 04:25:39;;;;;;;18.65;14.82;;;;;;;3.63;87.35;98918.69;4973497;28;20646;-75
2021/04/30 04:28:05;;;;;;;18.00;14.18;;;;;;;3.78;86.65;98932.28;4973120;28;20209;-74
2021/04/30 04:30:32;;;;;;;22.23;15.02;;;;;;;3.94;85.73;98934.28;4973167;28;20585;-74
2021/04/30 04:32:59;;;;;;;16.73;13.43;;;;;;;4.05;84.80;98941.81;4973161;28;20202;-74
2021/04/30 04:35:25;;;;;;;21.67;13.80;;;;;;;4.25;83.19;98940.97;4973087;28;20272;-73
2021/04/30 04:37:51;;;;;;;17.38;13.85;;;;;;;4.18;83.67;98943.03;4972839;28;20237;-74
2021/04/30 04:40:18;;;;;;;17.52;13.32;;;;;;;4.39;82.76;98941.25;4972741;28;20632;-74
2021/04/30 04:42:45;;;;;;;20.80;15.43;;;;;;;4.08;83.70;98930.16;4973095;28;20234;-75
2021/04/30 04:45:12;;;;;;;21.13;15.40;;;;;;;4.23;83.66;98933.97;4973149;28;20342;-74
2021/04/30 04:47:40;;;;;;;20.85;16.25;;;;;;;4.22;83.52;98926.91;4972892;28;20271;-74
2021/04/30 04:50:08;;;;;;;20.77;15.43;;;;;;;4.39;83.12;98924.38;4972870;28;20578;-74
2021/04/30 04:52:34;;;;;;;18.83;15.38;;;;;;;4.44;82.46;98934.84;4972584;28;20202;-73
2021/04/30 04:55:00;;;;;;;17.20;14.52;;;;;;;4.86;80.97;98937.41;4972775;28;20551;-75
2021/04/30 04:57:26;;;;;;;22.98;15.35;;;;;;;4.87;80.31;98947.13;4973145;28;20186;-75
2021/04/30 04:59:52;;;;;;;22.35;14.63;;;;;;;5.19;79.63;98953.66;4972631;28;20301;-74
2021/04/30 05:02:18;;;;;;;19.58;14.88;;;;;;;5.18;78.95;98954.59;4972891;28;20246;-74
2021/04/30 05:04:46;;;;;;;16.73;14.20;;;;;;;5.17;78.45;98955.53;4972607;28;20235;-74
2021/04/30 05:07:13;;;;;;;18.50;14.93;;;;;;;5.17;78.60;98947.50;4973029;28;20596;-74
2021/04/30 05:09:39;;;;;;;19.20;15.10;;;;;;;5.25;78.85;98944.50;4971980;28;20278;-75
2021/04/30 05:12:07;;;;;;;16.73;13.73;;;;;;;5.38;77.98;98951.00;4972667;28;20281;-75
2021/04/30 05:14:33;;;;;;;18.85;14.50;;;;;;;5.25;77.54;98946.31;4973135;28;20241;-74
2021/04/30 05:16:59;;;;;;;17.83;14.82;;;;;;;5.20;78.09;98939.38;4972693;28;20279;-74
2021/04/30 05:19:25;;;;;;;18.45;14.35;;;;;;;5.15;77.96;98943.19;4972935;28;20283;-76
2021/04/30 05:21:52;;;;;;;18.45;14.20;;;;;;;5.44;77.53;98945.34;4972825;28;20262;-74
2021/04/30 05:24:18;;;;;;;21.02;14.57;;;;;;;5.48;77.60;98939.88;4972494;28;20204;-74
2021/04/30 05:26:44;;;;;;;16.20;13.50;;;;;;;5.43;77.92;98937.44;4972203;28;20219;-75
2021/04/30 05:29:11;;;;;;;19.42;15.13;;;;;;;5.44;77.75;98931.13;4972586;28;20191;-75
2021/04/30 05:31:38;;;;;;;20.60;14.98;;;;;;;5.55;77.77;98939.50;4972921;28;20558;-74
2021/04/30 05:34:04;;;;;;;19.25;14.10;;;;;;;5.93;76.81;98939.44;4972698;28;20914;-75
2021/04/30 05:36:31;;;;;;;21.00;16.08;;;;;;;6.03;76.03;98939.88;4972676;28;20314;-75
2021/04/30 05:38:58;;;;;;;18.02;14.95;;;;;;;6.11;75.45;98945.72;4972453;28;20214;-77
2021/04/30 05:41:24;;;;;;;19.40;15.38;;;;;;;6.13;75.30;98945.63;4972315;28;20935;-73
2021/04/30 05:43:51;;;;;;;19.75;15.43;;;;;;;6.38;73.88;98938.09;4972205;28;20235;-76
2021/04/30 05:46:17;;;;;;;21.27;16.80;;;;;;;6.64;72.49;98936.72;4972717;28;20266;-75
2021/04/30 05:48:43;;;;;;;19.27;14.50;;;;;;;6.75;71.97;98938.84;4972105;28;20195;-73
2021/04/30 05:51:09;;;;;;;19.23;15.00;;;;;;;6.91;71.29;98928.19;4972714;28;20638;-75
2021/04/30 05:53:35;;;;;;;19.40;14.98;;;;;;;6.93;71.19;98931.63;4975037;28;20204;-75
2021/04/30 05:56:02;;;;;;;20.88;15.25;;;;;;;6.84;71.78;98927.63;4976034;28;20623;-73
2021/04/30 05:58:28;;;;;;;19.70;14.68;;;;;;;6.68;73.02;98929.41;4974802;28;20192;-75
2021/04/30 06:00:55;;;;;;;21.42;17.00;;;;;;;6.60;73.22;98934.28;4975896;28;20239;-74
2021/04/30 06:03:21;;;;;;;22.17;15.80;;;;;;;6.65;73.68;98943.81;4975416;28;20789;-75
2021/04/30 06:05:47;;;;;;;22.73;17.73;;;;;;;6.92;72.91;98937.94;4975243;28;20231;-76
2021/04/30 06:08:13;;;;;;;22.60;16.17;;;;;;;6.98;72.66;98940.28;4974868;28;20282;-75
2021/04/30 06:10:39;;;;;;;24.52;16.80;;;;;;;7.10;72.16;98944.97;4975202;28;20204;-76
2021/04/30 06:13:07;;;;;;;21.42;16.88;;;;;;;7.25;71.49;98947.75;4975487;28;20247;-75
2021/04/30 06:15:35;;;;;;;21.25;16.50;;;;;;;6.74;72.67;98953.19;4974928;28;20195;-75
2021/04/30 06:18:01;;;;;;;22.10;17.75;;;;;;;7.06;71.73;98958.63;4975537;28;20553;-75
2021/04/30 06:20:28;;;;;;;19.65;15.35;;;;;;;7.03;71.50;98958.75;4975036;28;20200;-75
2021/04/30 06:22:54;;;;;;;24.63;18.05;;;;;;;7.08;71.31;98967.44;4974865;28;20220;-75
2021/04/30 06:25:20;;;;;;;19.13;16.10;;;;;;;7.30;70.70;98977.81;4974937;28;20190;-74
2021/04/30 06:27:46;;;;;;;24.08;17.70;;;;;;;7.18;70.71;98974.00;4974916;28;20327;-76
2021/04/30 06:30:15;;;;;;;24.23;17.67;;;;;;;7.27;71.30;98973.50;4975344;28;20234;-76
2021/04/30 06:32:43;;;;;;;24.70;17.63;;;;;;;7.04;71.67;98974.75;4975083;28;20188;-75
2021/04/30 06:35:10;;;;;;;22.65;18.05;;;;;;;6.76;72.82;98978.03;4974916;28;20208;-75
2021/04/30 06:37:37;;;;;;;22.95;18.88;;;;;;;7.10;72.17;98973.56;4974893;28;20184;-76
2021/04/30 06:40:05;;;;;;;24.98;18.55;;;;;;;7.41;71.10;98962.03;4974771;28;20211;-76
2021/04/30 06:42:31;;;;;;;28.92;19.08;;;;;;;7.09;71.68;98979.88;4974713;28;20208;-77
2021/04/30 06:44:57;;;;;;;25.73;19.75;;;;;;;7.19;71.59;98980.22;4974937;28;20230;-74
2021/04/30 06:47:24;;;;;;;26.52;19.48;;;;;;;7.17;71.72;98982.13;4974600;28;20227;-73
2021/04/30 06:49:50;;;;;;;26.42;19.13;;;;;;;7.20;72.04;98981.97;4974571;28;20624;-75
2021/04/30 06:52:16;;;;;;;24.80;19.23;;;;;;;6.91;73.12;98980.84;4974989;28;20306;-75
2021/04/30 06:54:42;;;;;;;25.60;17.75;;;;;;;6.94;73.66;98978.00;4974194;28;20247;-75
2021/04/30 06:57:08;;;;;;;27.05;18.38;;;;;;;7.09;73.61;98979.88;4974671;28;20280;-75
2021/04/30 06:59:35;;;;;;;23.67;18.73;;;;;;;7.16;73.13;98983.94;4975180;28;20188;-73
2021/04/30 07:02:02;;;;;;;24.70;19.65;;;;;;;7.16;73.24;98981.25;4973079;28;20227;-74
2021/04/30 07:04:29;;;;;;;30.15;20.00;;;;;;;7.38;72.43;98978.28;4974600;28;20586;-75
2021/04/30 07:06:55;;;;;;;27.15;20.33;;;;;;;7.52;71.98;98978.38;4974450;28;20228;-74
2021/04/30 07:09:21;;;;;;;24.27;19.55;;;;;;;7.63;71.79;98975.09;4974173;28;20239;-75
2021/04/30 07:11:47;;;;;;;26.38;18.42;;;;;;;7.84;70.81;98970.34;4974358;28;20200;-73
2021/04/30 07:14:13;;;;;;;28.08;19.02;;;;;;;8.04;70.51;98976.38;4974325;28;20188;-74
2021/04/30 07:16:39;;;;;;;25.33;18.65;;;;;;;8.27;69.26;98975.91;4973981;28;20281;-75
2021/04/30 07:19:05;;;;;;;22.77;18.05;;;;;;;8.23;68.67;98978.84;4973678;28;20192;-74
2021/04/30 07:21:33;;;;;;;23.55;18.67;;;;;;;8.13;68.67;98987.44;4974520;28;20626;-75
2021/04/30 07:23:59;;;;;;;22.70;18.02;;;;;;;8.05;69.60;98983.47;4974383;28;20617;-75
2021/04/30 07:26:25;;;;;;;26.77;19.42;;;;;;;8.35;69.05;98986.19;4974381;28;20239;-75
2021/04/30 07:28:51;;;;;;;27.92;18.90;;;;;;;8.28;69.08;98985.69;4974139;28;20203;-75
2021/04/30 07:31:18;;;;;;;26.00;20.38;;;;;;;8.43;68.70;98981.25;4974377;28;20270;-75
2021/04/30 07:33:46;;;;;;;24.48;19.13;;;;;;;8.54;67.99;98967.22;4973880;28;20283;-74
2021/04/30 07:36:13;;;;;;;25.15;19.42;;;;;;;8.76;66.95;98973.00;4974031;28;20264;-74
2021/04/30 07:38:40;;;;;;;27.67;22.27;;;;;;;8.77;67.26;98982.81;4973647;28;20195;-75
2021/04/30 07:41:07;;;;;;;47.90;27.33;;;;;;;9.24;65.86;98974.59;4974561;28;20950;-75
2021/04/30 07:43:33;;;;;;;21.52;18.50;;;;;;;9.22;65.59;98980.06;4974060;28;21040;-75
2021/04/30 07:46:00;;;;;;;27.67;19.25;;;;;;;9.19;66.09;98970.38;4973999;28;20281;-75
2021/04/30 07:48:26;;;;;;;24.17;19.27;;;;;;;9.45;65.16;98961.63;4974064;28;20537;-73
2021/04/30 07:50:54;;;;;;;27.00;19.35;;;;;;;9.49;64.46;98953.28;4973394;28;20316;-75
2021/04/30 07:53:21;;;;;;;24.02;19.05;;;;;;;9.38;64.43;98966.53;4974176;28;20210;-73
2021/04/30 07:55:48;;;;;;;25.20;20.58;;;;;;;9.46;64.21;98964.22;4974012;28;20209;-75
2021/04/30 07:58:14;;;;;;;25.02;18.30;;;;;;;9.42;63.28;98964.53;4973736;28;20256;-75
2021/04/30 08:00:40;;;;;;;27.88;19.30;;;;;;;8.91;65.48;98975.72;4973388;28;20645;-74
2021/04/30 08:03:06;;;;;;;27.10;19.30;;;;;;;9.08;64.86;98961.25;4973799;28;20555;-73
2021/04/30 08:05:33;;;;;;;22.55;18.52;;;;;;;8.83;65.26;98957.41;4972887;28;20238;-75
2021/04/30 08:08:04;;;;;;;24.77;19.00;;;;;;;8.83;65.57;98945.81;4973865;28;20275;-75
2021/04/30 08:10:31;;;;;;;22.90;19.35;;;;;;;9.25;64.49;98952.13;4973826;28;20267;-73
2021/04/30 08:12:58;;;;;;;26.30;20.15;;;;;;;9.27;64.74;98961.84;4974060;28;20265;-74
2021/04/30 08:15:24;;;;;;;27.92;19.48;;;;;;;9.45;64.34;98958.94;4972966;28;20321;-75
2021/04/30 08:17:51;;;;;;;26.48;18.83;;;;;;;9.76;63.38;98966.75;4973191;28;20229;-75
2021/04/30 08:20:17;;;;;;;22.92;19.05;;;;;;;9.89;63.13;98968.66;4973299;28;20524;-75
2021/04/30 08:22:43;;;;;;;26.58;21.50;;;;;;;9.79;63.08;98961.19;4973254;28;20280;-74
2021/04/30 08:25:11;;;;;;;27.10;18.90;;;;;;;9.74;62.90;98973.19;4973224;28;20266;-75
2021/04/30 08:27:37;;;;;;;23.65;18.00;;;;;;;9.82;62.60;98962.81;4973056;28;20196;-75
2021/04/30 08:30:06;;;;;;;21.50;18.73;;;;;;;10.11;61.11;98978.88;4972807;28;20289;-74
2021/04/30 08:32:32;;;;;;;27.48;19.52;;;;;;;10.11;60.88;98968.97;4973417;28;20289;-75
2021/04/30 08:34:58;;;;;;;24.35;18.42;;;;;;;10.30;60.69;98968.63;4972810;28;20207;-75
2021/04/30 08:37:24;;;;;;;26.27;19.20;;;;;;;10.47;60.32;98964.81;4973409;28;20662;-75
2021/04/30 08:39:50;;;;;;;22.05;18.20;;;;;;;10.43;59.93;98960.63;4972550;28;20212;-75
2021/04/30 08:42:18;;;;;;;22.67;17.90;;;;;;;10.64;60.04;98958.28;4973288;28;20309;-76
2021/04/30 08:44:44;;;;;;;24.10;18.98;;;;;;;10.85;58.18;98964.88;4972941;28;20200;-76
2021/04/30 08:47:17;;;;;;;25.33;18.63;;;;;;;11.05;57.72;98951.84;4972796;28;20194;-75
2021/04/30 08:49:43;;;;;;;24.00;19.25;;;;;;;10.91;57.23;98949.25;4973191;28;20258;-74
2021/04/30 08:52:10;;;;;;;20.70;17.45;;;;;;;11.11;56.77;98947.88;4973543;28;20199;-75
2021/04/30 08:54:37;;;;;;;22.95;17.75;;;;;;;11.70;54.74;98945.41;4972373;28;20204;-75
2021/04/30 08:57:06;;;;;;;22.00;18.20;;;;;;;12.05;53.92;98944.66;4972743;28;20206;-75
2021/04/30 08:59:33;;;;;;;21.00;18.30;;;;;;;12.50;51.85;98948.44;4972493;28;20204;-75
2021/04/30 09:01:59;;;;;;;20.48;17.30;;;;;;;12.06;52.08;98944.53;4972710;28;20228;-75
2021/04/30 09:04:27;;;;;;;22.65;18.13;;;;;;;11.46;53.48;98948.03;4972612;28;20263;-74
2021/04/30 09:06:53;;;;;;;19.50;17.25;;;;;;;12.17;51.85;98940.19;4972409;28;20192;-76
2021/04/30 09:09:20;;;;;;;18.95;16.65;;;;;;;12.04;51.31;98933.00;4971938;28;20192;-76
2021/04/30 09:11:51;;;;;;;18.58;16.15;;;;;;;12.13;50.77;98942.25;4972769;28;20188;-75
2021/04/30 09:14:29;;;;;;;23.80;17.80;;;;;;;12.22;51.19;98933.47;4972580;28;20710;-75
2021/04/30 09:17:00;;;;;;;22.23;19.83;;;;;;;12.29;50.80;98937.41;4972619;28;20208;-75
2021/04/30 09:19:31;;;;;;;20.17;16.80;;;;;;;12.70;49.46;98927.97;4971635;28;20196;-73
2021/04/30 09:21:59;;;;;;;19.98;16.85;;;;;;;12.90;48.22;98921.00;4971873;28;20270;-76
2021/04/30 09:24:25;;;;;;;21.23;18.90;;;;;;;12.92;48.23;98924.47;4973086;28;20236;-74
2021/04/30 09:26:51;;;;;;;22.83;18.00;;;;;;;12.73;48.64;98916.09;4973721;28;20227;-75
2021/04/30 09:29:21;;;;;;;22.35;17.38;;;;;;;12.74;48.74;98915.09;4975997;28;20211;-75
2021/04/30 09:31:48;;;;;;;29.70;26.73;;;;;;;12.85;48.87;98914.25;4976276;28;20275;-75
2021/04/30 09:34:26;;;;;;;15.40;13.82;;;;;;;12.73;45.08;98908.84;4976016;28;20630;-76
2021/04/30 09:37:05;;;;;;;16.75;13.48;;;;;;;12.76;45.95;98907.75;4975903;28;20674;-76
2021/04/30 09:39:47;;;;;;;13.68;12.27;;;;;;;12.79;44.29;98917.44;4976219;28;20207;-74
2021/04/30 09:42:19;;;;;;;15.57;12.88;;;;;;;12.81;44.38;98920.88;4975897;28;20259;-74
2021/04/30 09:44:47;;;;;;;15.45;13.18;;;;;;;12.50;45.75;98934.03;4976276;28;20561;-76
2021/04/30 09:47:15;;;;;;;15.85;13.75;;;;;;;12.00;45.90;98936.03;4975964;28;20235;-74
2021/04/30 09:49:41;;;;;;;17.63;12.95;;;;;;;12.01;45.83;98949.44;4975674;28;20200;-75
2021/04/30 09:52:09;;;;;;;18.17;11.70;;;;;;;12.03;45.14;98957.38;4975975;28;20184;-76
2021/04/30 09:54:38;;;;;;;13.00;11.60;;;;;;;11.97;45.09;98953.31;4976022;28;20212;-76
2021/04/30 09:57:09;;;;;;;14.35;11.38;;;;;;;11.83;45.31;98948.06;4975540;28;20207;-76
2021/04/30 09:59:37;;;;;;;14.80;12.70;;;;;;;12.19;44.99;98931.00;4975717;28;20636;-77
2021/04/30 10:02:09;;;;;;;15.27;12.45;;;;;;;12.27;44.28;98933.97;4975640;28;20290;-75
2021/04/30 10:04:36;;;;;;;15.63;11.45;;;;;;;12.35;44.42;98930.69;4975184;28;20235;-74
2021/04/30 10:07:04;;;;;;;14.45;10.75;;;;;;;12.31;44.35;98935.47;4976048;28;20685;-73
2021/04/30 10:09:32;;;;;;;13.45;11.80;;;;;;;12.75;43.71;98937.56;4975418;28;20231;-75
2021/04/30 10:11:58;;;;;;;12.70;11.50;;;;;;;12.73;43.73;98943.97;4976126;28;20271;-74
2021/04/30 10:14:25;;;;;;;12.85;11.48;;;;;;;12.79;43.40;98934.50;4975576;28;20234;-74
2021/04/30 10:16:52;;;;;;;13.77;11.93;;;;;;;12.72;43.79;98931.41;4975938;28;20211;-74
2021/04/30 10:19:18;;;;;;;14.35;12.85;;;;;;;13.25;44.54;98927.31;4975223;28;20196;-73
2021/04/30 10:21:45;;;;;;;16.52;13.65;;;;;;;13.35;44.73;98920.22;4974843;28;20219;-75
2021/04/30 10:24:15;;;;;;;15.60;13.30;;;;;;;13.78;43.78;98932.97;4975356;28;20643;-75
2021/04/30 10:26:42;;;;;;;14.82;12.95;;;;;;;13.42;43.97;98931.41;4975237;28;20208;-75
2021/04/30 10:29:13;;;;;;;18.60;16.60;;;;;;;13.60;44.26;98945.28;4975487;28;20240;-76
2021/04/30 10:31:43;;;;;;;17.45;13.85;;;;;;;13.73;42.96;98932.50;4974907;28;20223;-74
2021/04/30 10:34:17;;;;;;;20.52;14.80;;;;;;;13.95;43.12;98926.16;4974971;28;20239;-76
2021/04/30 10:36:48;;;;;;;14.88;12.70;;;;;;;14.09;42.60;98930.44;4974315;28;20202;-74
2021/04/30 10:39:26;;;;;;;21.67;19.30;;;;;;;14.23;42.69;98932.84;4975346;28;20195;-73
2021/04/30 10:41:53;;;;;;;16.45;13.10;;;;;;;14.44;42.11;98935.59;4975293;28;20690;-73
2021/04/30 10:44:22;;;;;;;17.92;16.02;;;;;;;14.55;41.85;98932.00;4974779;28;20323;-77
2021/04/30 10:46:51;;;;;;;14.68;13.13;;;;;;;14.36;41.92;98946.22;4975187;28;20205;-73
2021/04/30 10:49:20;;;;;;;15.85;14.15;;;;;;;14.56;41.54;98950.84;4975343;28;20202;-75
2021/04/30 10:52:18;;;;;;;18.38;13.45;;;;;;;15.05;40.73;98951.19;4974879;28;20209;-75
2021/04/30 10:54:47;;;;;;;14.80;12.85;;;;;;;15.08;40.67;98950.94;4969575;28;20207;-75
2021/04/30 10:57:15;;;;;;;14.45;12.95;;;;;;;15.42;39.90;98953.38;4974835;28;20211;-74
2021/04/30 10:59:46;;;;;;;14.55;12.70;;;;;;;15.70;39.06;98956.34;4975163;28;20572;-75
2021/04/30 11:02:19;;;;;;;16.10;13.85;;;;;;;15.59;39.26;98955.44;4974583;28;20266;-75
2021/04/30 11:05:13;;;;;;;18.70;13.98;;;;;;;14.85;40.30;98961.03;4974285;28;20278;-75
2021/04/30 11:07:42;;;;;;;16.40;13.57;;;;;;;15.03;39.76;98964.00;4974739;28;20599;-74
2021/04/30 11:10:50;;;;;;;16.02;14.32;;;;;;;14.89;40.04;98967.06;4974465;28;20262;-75
2021/04/30 11:13:18;;;;;;;16.08;13.57;;;;;;;14.71;40.12;98956.78;4954999;28;20538;-76
2021/04/30 11:15:55;;;;;;;15.60;12.88;;;;;;;14.54;40.98;98950.13;4974441;28;20277;-76
2021/04/30 11:18:23;;;;;;;15.20;13.45;;;;;;;14.31;40.88;98943.91;4973680;28;20212;-74
2021/04/30 11:20:59;;;;;;;17.63;13.15;;;;;;;14.06;41.29;98950.47;4974146;28;20640;-74
2021/04/30 11:23:27;;;;;;;12.60;11.23;;;;;;;14.20;40.39;98935.81;4974389;28;20224;-75
2021/04/30 11:26:08;;;;;;;13.07;11.77;;;;;;;14.60;39.45;98936.03;4974117;28;20635;-75